sensor_id;sensor_type;location;lat;lon;timestamp;P1;durP1;ratioP1;P2;durP2;ratioP2
40162;SDS011;25881;47.462;19.304;2023-03-01T00:00:10;35.80;;;19.65;;
40162;SDS011;25881;47.462;19.304;2023-03-01T00:02:35;29.92;;;18.40;;
40162;SDS011;25881;47.462;19.304;2023-03-01T00:05:01;36.40;;;19.38;;
40162;SDS011;25881;47.462;19.304;2023-03-01T00:07:26;33.13;;;18.63;;
40162;SDS011;25881;47.462;19.304;2023-03-01T00:09:51;32.70;;;19.83;;
40162;SDS011;25881;47.462;19.304;2023-03-01T00:12:17;40.40;;;20.93;;
40162;SDS011;25881;47.462;19.304;2023-03-01T00:14:42;30.35;;;19.30;;
40162;SDS011;25881;47.462;19.304;2023-03-01T00:17:07;38.43;;;20.33;;
40162;SDS011;25881;47.462;19.304;2023-03-01T00:19:33;41.10;;;22.02;;
40162;SDS011;25881;47.462;19.304;2023-03-01T00:22:01;43.33;;;21.55;;
40162;SDS011;25881;47.462;19.304;2023-03-01T00:24:26;40.08;;;21.38;;
40162;SDS011;25881;47.462;19.304;2023-03-01T00:26:52;43.10;;;22.40;;
40162;SDS011;25881;47.462;19.304;2023-03-01T00:29:19;40.57;;;22.37;;
40162;SDS011;25881;47.462;19.304;2023-03-01T00:31:45;42.27;;;21.17;;
40162;SDS011;25881;47.462;19.304;2023-03-01T00:34:10;38.67;;;20.90;;
40162;SDS011;25881;47.462;19.304;2023-03-01T00:36:35;40.40;;;20.95;;
40162;SDS011;25881;47.462;19.304;2023-03-01T00:39:02;46.17;;;23.58;;
40162;SDS011;25881;47.462;19.304;2023-03-01T00:41:29;36.72;;;21.00;;
40162;SDS011;25881;47.462;19.304;2023-03-01T00:43:54;29.80;;;17.38;;
40162;SDS011;25881;47.462;19.304;2023-03-01T00:46:20;35.67;;;20.77;;
40162;SDS011;25881;47.462;19.304;2023-03-01T00:48:46;33.85;;;19.52;;
40162;SDS011;25881;47.462;19.304;2023-03-01T00:51:12;35.72;;;20.90;;
40162;SDS011;25881;47.462;19.304;2023-03-01T00:53:38;37.20;;;20.17;;
40162;SDS011;25881;47.462;19.304;2023-03-01T00:56:04;40.10;;;21.92;;
40162;SDS011;25881;47.462;19.304;2023-03-01T00:58:30;33.08;;;18.90;;
40162;SDS011;25881;47.462;19.304;2023-03-01T01:00:55;33.17;;;19.33;;
40162;SDS011;25881;47.462;19.304;2023-03-01T01:03:21;35.15;;;20.65;;
40162;SDS011;25881;47.462;19.304;2023-03-01T01:05:46;28.23;;;17.65;;
40162;SDS011;25881;47.462;19.304;2023-03-01T01:08:12;30.48;;;18.17;;
40162;SDS011;25881;47.462;19.304;2023-03-01T01:10:37;33.80;;;19.20;;
40162;SDS011;25881;47.462;19.304;2023-03-01T01:13:02;31.93;;;18.70;;
40162;SDS011;25881;47.462;19.304;2023-03-01T01:15:27;28.90;;;18.17;;
40162;SDS011;25881;47.462;19.304;2023-03-01T01:17:53;28.35;;;18.73;;
40162;SDS011;25881;47.462;19.304;2023-03-01T01:20:18;32.73;;;19.13;;
40162;SDS011;25881;47.462;19.304;2023-03-01T01:22:43;30.55;;;18.17;;
40162;SDS011;25881;47.462;19.304;2023-03-01T01:25:09;28.17;;;17.57;;
40162;SDS011;25881;47.462;19.304;2023-03-01T01:27:34;28.38;;;17.65;;
40162;SDS011;25881;47.462;19.304;2023-03-01T01:29:59;28.40;;;16.43;;
40162;SDS011;25881;47.462;19.304;2023-03-01T01:32:24;30.63;;;17.07;;
40162;SDS011;25881;47.462;19.304;2023-03-01T01:34:50;28.53;;;17.70;;
40162;SDS011;25881;47.462;19.304;2023-03-01T01:37:15;26.10;;;16.27;;
40162;SDS011;25881;47.462;19.304;2023-03-01T01:39:40;32.78;;;18.48;;
40162;SDS011;25881;47.462;19.304;2023-03-01T01:42:06;28.80;;;16.70;;
40162;SDS011;25881;47.462;19.304;2023-03-01T01:44:32;26.75;;;15.93;;
40162;SDS011;25881;47.462;19.304;2023-03-01T01:47:00;29.33;;;17.25;;
40162;SDS011;25881;47.462;19.304;2023-03-01T01:52:05;26.60;;;15.93;;
40162;SDS011;25881;47.462;19.304;2023-03-01T01:54:34;25.65;;;16.40;;
40162;SDS011;25881;47.462;19.304;2023-03-01T01:57:02;28.00;;;16.25;;
40162;SDS011;25881;47.462;19.304;2023-03-01T01:59:28;26.10;;;16.35;;
40162;SDS011;25881;47.462;19.304;2023-03-01T02:01:55;26.08;;;16.40;;
40162;SDS011;25881;47.462;19.304;2023-03-01T02:04:22;30.67;;;17.17;;
40162;SDS011;25881;47.462;19.304;2023-03-01T02:06:49;27.47;;;15.97;;
40162;SDS011;25881;47.462;19.304;2023-03-01T02:09:16;26.35;;;14.85;;
40162;SDS011;25881;47.462;19.304;2023-03-01T02:11:43;25.88;;;15.18;;
40162;SDS011;25881;47.462;19.304;2023-03-01T02:14:09;25.10;;;15.88;;
40162;SDS011;25881;47.462;19.304;2023-03-01T02:16:34;25.25;;;15.20;;
40162;SDS011;25881;47.462;19.304;2023-03-01T02:18:59;26.10;;;15.32;;
40162;SDS011;25881;47.462;19.304;2023-03-01T02:23:54;24.65;;;15.60;;
40162;SDS011;25881;47.462;19.304;2023-03-01T02:26:23;30.70;;;16.08;;
40162;SDS011;25881;47.462;19.304;2023-03-01T02:28:49;28.85;;;15.02;;
40162;SDS011;25881;47.462;19.304;2023-03-01T02:31:15;24.83;;;15.45;;
40162;SDS011;25881;47.462;19.304;2023-03-01T02:34:00;26.52;;;14.88;;
40162;SDS011;25881;47.462;19.304;2023-03-01T02:36:29;25.27;;;14.45;;
40162;SDS011;25881;47.462;19.304;2023-03-01T02:38:56;25.23;;;14.60;;
40162;SDS011;25881;47.462;19.304;2023-03-01T02:41:22;25.50;;;15.20;;
40162;SDS011;25881;47.462;19.304;2023-03-01T02:43:48;26.52;;;15.43;;
40162;SDS011;25881;47.462;19.304;2023-03-01T02:46:19;25.17;;;14.30;;
40162;SDS011;25881;47.462;19.304;2023-03-01T02:48:49;26.60;;;14.95;;
40162;SDS011;25881;47.462;19.304;2023-03-01T02:52:01;29.85;;;16.05;;
40162;SDS011;25881;47.462;19.304;2023-03-01T02:56:28;27.15;;;15.02;;
40162;SDS011;25881;47.462;19.304;2023-03-01T02:58:54;24.45;;;14.55;;
40162;SDS011;25881;47.462;19.304;2023-03-01T03:01:20;24.55;;;14.70;;
40162;SDS011;25881;47.462;19.304;2023-03-01T03:03:45;26.30;;;15.18;;
40162;SDS011;25881;47.462;19.304;2023-03-01T03:06:11;24.83;;;14.60;;
40162;SDS011;25881;47.462;19.304;2023-03-01T03:08:36;23.63;;;15.82;;
40162;SDS011;25881;47.462;19.304;2023-03-01T03:11:01;26.77;;;16.27;;
40162;SDS011;25881;47.462;19.304;2023-03-01T03:13:27;23.73;;;14.32;;
40162;SDS011;25881;47.462;19.304;2023-03-01T03:15:54;27.38;;;15.27;;
40162;SDS011;25881;47.462;19.304;2023-03-01T03:18:19;25.63;;;14.93;;
40162;SDS011;25881;47.462;19.304;2023-03-01T03:20:44;28.63;;;16.17;;
40162;SDS011;25881;47.462;19.304;2023-03-01T03:23:10;26.50;;;15.88;;
40162;SDS011;25881;47.462;19.304;2023-03-01T03:25:35;27.20;;;15.13;;
40162;SDS011;25881;47.462;19.304;2023-03-01T03:28:03;27.42;;;15.50;;
40162;SDS011;25881;47.462;19.304;2023-03-01T03:30:34;25.20;;;14.43;;
40162;SDS011;25881;47.462;19.304;2023-03-01T03:33:00;23.48;;;14.10;;
40162;SDS011;25881;47.462;19.304;2023-03-01T03:35:26;23.27;;;15.63;;
40162;SDS011;25881;47.462;19.304;2023-03-01T03:37:53;23.90;;;14.48;;
40162;SDS011;25881;47.462;19.304;2023-03-01T03:40:46;24.60;;;14.18;;
40162;SDS011;25881;47.462;19.304;2023-03-01T03:43:13;23.42;;;13.95;;
40162;SDS011;25881;47.462;19.304;2023-03-01T03:45:39;26.33;;;14.05;;
40162;SDS011;25881;47.462;19.304;2023-03-01T03:48:07;22.80;;;13.30;;
40162;SDS011;25881;47.462;19.304;2023-03-01T03:50:32;28.17;;;14.13;;
40162;SDS011;25881;47.462;19.304;2023-03-01T03:53:00;25.45;;;13.25;;
40162;SDS011;25881;47.462;19.304;2023-03-01T03:55:25;21.65;;;12.82;;
40162;SDS011;25881;47.462;19.304;2023-03-01T03:57:56;21.48;;;13.07;;
40162;SDS011;25881;47.462;19.304;2023-03-01T04:00:21;21.55;;;12.50;;
40162;SDS011;25881;47.462;19.304;2023-03-01T04:02:49;23.08;;;12.23;;
40162;SDS011;25881;47.462;19.304;2023-03-01T04:05:15;22.05;;;13.55;;
40162;SDS011;25881;47.462;19.304;2023-03-01T04:07:41;18.58;;;11.98;;
40162;SDS011;25881;47.462;19.304;2023-03-01T04:10:08;20.80;;;12.23;;
40162;SDS011;25881;47.462;19.304;2023-03-01T04:12:33;21.23;;;12.13;;
40162;SDS011;25881;47.462;19.304;2023-03-01T04:15:00;22.40;;;12.55;;
40162;SDS011;25881;47.462;19.304;2023-03-01T04:17:25;22.77;;;13.50;;
40162;SDS011;25881;47.462;19.304;2023-03-01T04:19:50;21.48;;;13.25;;
40162;SDS011;25881;47.462;19.304;2023-03-01T04:22:15;21.90;;;13.30;;
40162;SDS011;25881;47.462;19.304;2023-03-01T04:24:43;21.40;;;13.10;;
40162;SDS011;25881;47.462;19.304;2023-03-01T04:27:09;23.13;;;13.07;;
40162;SDS011;25881;47.462;19.304;2023-03-01T04:29:34;22.38;;;12.85;;
40162;SDS011;25881;47.462;19.304;2023-03-01T04:31:59;20.73;;;13.40;;
40162;SDS011;25881;47.462;19.304;2023-03-01T04:34:24;19.52;;;12.05;;
40162;SDS011;25881;47.462;19.304;2023-03-01T04:36:51;18.55;;;11.73;;
40162;SDS011;25881;47.462;19.304;2023-03-01T04:39:17;23.95;;;11.95;;
40162;SDS011;25881;47.462;19.304;2023-03-01T04:41:42;20.80;;;12.27;;
40162;SDS011;25881;47.462;19.304;2023-03-01T04:44:10;20.52;;;12.20;;
40162;SDS011;25881;47.462;19.304;2023-03-01T04:46:36;22.73;;;13.30;;
40162;SDS011;25881;47.462;19.304;2023-03-01T04:49:04;23.75;;;11.68;;
40162;SDS011;25881;47.462;19.304;2023-03-01T04:51:32;20.27;;;12.35;;
40162;SDS011;25881;47.462;19.304;2023-03-01T04:53:57;23.27;;;12.57;;
40162;SDS011;25881;47.462;19.304;2023-03-01T04:56:23;18.60;;;11.60;;
40162;SDS011;25881;47.462;19.304;2023-03-01T04:58:48;17.67;;;11.45;;
40162;SDS011;25881;47.462;19.304;2023-03-01T05:01:20;23.05;;;12.32;;
40162;SDS011;25881;47.462;19.304;2023-03-01T05:03:49;22.50;;;13.15;;
40162;SDS011;25881;47.462;19.304;2023-03-01T05:06:15;21.92;;;12.48;;
40162;SDS011;25881;47.462;19.304;2023-03-01T05:08:40;21.83;;;13.07;;
40162;SDS011;25881;47.462;19.304;2023-03-01T05:11:06;22.35;;;13.38;;
40162;SDS011;25881;47.462;19.304;2023-03-01T05:13:33;19.15;;;12.52;;
40162;SDS011;25881;47.462;19.304;2023-03-01T05:15:59;19.88;;;12.85;;
40162;SDS011;25881;47.462;19.304;2023-03-01T05:18:25;20.83;;;12.38;;
40162;SDS011;25881;47.462;19.304;2023-03-01T05:20:54;20.90;;;11.75;;
40162;SDS011;25881;47.462;19.304;2023-03-01T05:23:23;20.20;;;12.82;;
40162;SDS011;25881;47.462;19.304;2023-03-01T05:25:51;19.65;;;12.57;;
40162;SDS011;25881;47.462;19.304;2023-03-01T05:28:17;19.23;;;12.13;;
40162;SDS011;25881;47.462;19.304;2023-03-01T05:30:43;21.35;;;12.15;;
40162;SDS011;25881;47.462;19.304;2023-03-01T05:33:08;22.77;;;13.30;;
40162;SDS011;25881;47.462;19.304;2023-03-01T05:35:40;22.02;;;13.63;;
40162;SDS011;25881;47.462;19.304;2023-03-01T05:38:07;25.02;;;13.95;;
40162;SDS011;25881;47.462;19.304;2023-03-01T05:40:33;36.10;;;18.50;;
40162;SDS011;25881;47.462;19.304;2023-03-01T05:42:58;37.50;;;18.13;;
40162;SDS011;25881;47.462;19.304;2023-03-01T05:45:24;26.47;;;15.20;;
40162;SDS011;25881;47.462;19.304;2023-03-01T05:47:50;52.33;;;21.90;;
40162;SDS011;25881;47.462;19.304;2023-03-01T05:50:22;51.13;;;25.05;;
40162;SDS011;25881;47.462;19.304;2023-03-01T05:52:52;43.33;;;22.48;;
40162;SDS011;25881;47.462;19.304;2023-03-01T05:55:21;39.00;;;19.90;;
40162;SDS011;25881;47.462;19.304;2023-03-01T05:57:47;40.03;;;19.63;;
40162;SDS011;25881;47.462;19.304;2023-03-01T06:00:13;29.05;;;16.70;;
40162;SDS011;25881;47.462;19.304;2023-03-01T06:02:39;28.63;;;15.43;;
40162;SDS011;25881;47.462;19.304;2023-03-01T06:05:05;30.40;;;17.10;;
40162;SDS011;25881;47.462;19.304;2023-03-01T06:07:31;29.52;;;15.55;;
40162;SDS011;25881;47.462;19.304;2023-03-01T06:09:56;28.80;;;15.85;;
40162;SDS011;25881;47.462;19.304;2023-03-01T06:12:21;37.10;;;20.17;;
40162;SDS011;25881;47.462;19.304;2023-03-01T06:14:46;31.23;;;17.60;;
40162;SDS011;25881;47.462;19.304;2023-03-01T06:17:14;31.63;;;16.38;;
40162;SDS011;25881;47.462;19.304;2023-03-01T06:19:40;36.35;;;18.15;;
40162;SDS011;25881;47.462;19.304;2023-03-01T06:22:05;44.78;;;20.10;;
40162;SDS011;25881;47.462;19.304;2023-03-01T06:24:30;38.17;;;19.97;;
40162;SDS011;25881;47.462;19.304;2023-03-01T06:26:56;30.83;;;16.30;;
40162;SDS011;25881;47.462;19.304;2023-03-01T06:29:21;27.10;;;15.10;;
40162;SDS011;25881;47.462;19.304;2023-03-01T06:31:47;25.20;;;14.95;;
40162;SDS011;25881;47.462;19.304;2023-03-01T06:34:12;27.92;;;14.48;;
40162;SDS011;25881;47.462;19.304;2023-03-01T06:36:38;28.13;;;16.48;;
40162;SDS011;25881;47.462;19.304;2023-03-01T06:39:04;25.15;;;14.73;;
40162;SDS011;25881;47.462;19.304;2023-03-01T06:41:30;30.30;;;17.17;;
40162;SDS011;25881;47.462;19.304;2023-03-01T06:43:55;30.52;;;15.38;;
40162;SDS011;25881;47.462;19.304;2023-03-01T06:46:21;26.33;;;15.77;;
40162;SDS011;25881;47.462;19.304;2023-03-01T06:48:46;29.65;;;16.08;;
40162;SDS011;25881;47.462;19.304;2023-03-01T06:51:11;30.90;;;17.65;;
40162;SDS011;25881;47.462;19.304;2023-03-01T06:53:37;25.52;;;15.10;;
40162;SDS011;25881;47.462;19.304;2023-03-01T06:56:02;25.93;;;15.73;;
40162;SDS011;25881;47.462;19.304;2023-03-01T06:58:27;23.42;;;14.85;;
40162;SDS011;25881;47.462;19.304;2023-03-01T07:00:53;24.10;;;14.75;;
40162;SDS011;25881;47.462;19.304;2023-03-01T07:03:18;25.93;;;14.77;;
40162;SDS011;25881;47.462;19.304;2023-03-01T07:05:43;23.77;;;14.88;;
40162;SDS011;25881;47.462;19.304;2023-03-01T07:08:09;23.63;;;14.65;;
40162;SDS011;25881;47.462;19.304;2023-03-01T07:10:34;20.88;;;13.68;;
40162;SDS011;25881;47.462;19.304;2023-03-01T07:13:00;23.80;;;13.90;;
40162;SDS011;25881;47.462;19.304;2023-03-01T07:15:26;23.98;;;15.43;;
40162;SDS011;25881;47.462;19.304;2023-03-01T07:17:51;27.65;;;16.25;;
40162;SDS011;25881;47.462;19.304;2023-03-01T07:20:19;24.63;;;13.75;;
40162;SDS011;25881;47.462;19.304;2023-03-01T07:22:49;26.05;;;14.93;;
40162;SDS011;25881;47.462;19.304;2023-03-01T07:25:14;24.42;;;13.75;;
40162;SDS011;25881;47.462;19.304;2023-03-01T07:27:40;24.15;;;15.77;;
40162;SDS011;25881;47.462;19.304;2023-03-01T07:30:05;27.10;;;15.27;;
40162;SDS011;25881;47.462;19.304;2023-03-01T07:32:30;27.08;;;13.98;;
40162;SDS011;25881;47.462;19.304;2023-03-01T07:34:56;23.63;;;13.37;;
40162;SDS011;25881;47.462;19.304;2023-03-01T07:37:21;23.60;;;13.73;;
40162;SDS011;25881;47.462;19.304;2023-03-01T07:39:46;27.08;;;15.25;;
40162;SDS011;25881;47.462;19.304;2023-03-01T07:42:12;22.20;;;12.90;;
40162;SDS011;25881;47.462;19.304;2023-03-01T07:44:37;19.95;;;12.45;;
40162;SDS011;25881;47.462;19.304;2023-03-01T07:47:03;20.07;;;12.87;;
40162;SDS011;25881;47.462;19.304;2023-03-01T07:49:28;18.88;;;11.73;;
40162;SDS011;25881;47.462;19.304;2023-03-01T07:51:53;20.63;;;13.03;;
40162;SDS011;25881;47.462;19.304;2023-03-01T07:54:19;18.35;;;11.73;;
40162;SDS011;25881;47.462;19.304;2023-03-01T07:56:44;19.88;;;11.52;;
40162;SDS011;25881;47.462;19.304;2023-03-01T07:59:09;18.17;;;10.47;;
40162;SDS011;25881;47.462;19.304;2023-03-01T08:01:35;18.10;;;11.30;;
40162;SDS011;25881;47.462;19.304;2023-03-01T08:04:00;15.57;;;10.10;;
40162;SDS011;25881;47.462;19.304;2023-03-01T08:06:26;16.83;;;10.18;;
40162;SDS011;25881;47.462;19.304;2023-03-01T08:08:52;17.30;;;10.43;;
40162;SDS011;25881;47.462;19.304;2023-03-01T08:11:20;15.30;;;9.40;;
40162;SDS011;25881;47.462;19.304;2023-03-01T08:13:46;13.55;;;8.32;;
40162;SDS011;25881;47.462;19.304;2023-03-01T08:16:13;18.20;;;9.48;;
40162;SDS011;25881;47.462;19.304;2023-03-01T08:18:38;18.55;;;10.60;;
40162;SDS011;25881;47.462;19.304;2023-03-01T08:21:05;15.23;;;9.38;;
40162;SDS011;25881;47.462;19.304;2023-03-01T08:23:30;15.52;;;9.93;;
40162;SDS011;25881;47.462;19.304;2023-03-01T08:26:03;15.68;;;9.63;;
40162;SDS011;25881;47.462;19.304;2023-03-01T08:28:28;15.30;;;8.60;;
40162;SDS011;25881;47.462;19.304;2023-03-01T08:30:53;14.52;;;9.43;;
40162;SDS011;25881;47.462;19.304;2023-03-01T08:33:19;14.87;;;8.93;;
40162;SDS011;25881;47.462;19.304;2023-03-01T08:35:44;14.00;;;8.57;;
40162;SDS011;25881;47.462;19.304;2023-03-01T08:38:09;14.07;;;8.57;;
40162;SDS011;25881;47.462;19.304;2023-03-01T08:40:34;17.07;;;10.27;;
40162;SDS011;25881;47.462;19.304;2023-03-01T08:43:00;16.40;;;9.90;;
40162;SDS011;25881;47.462;19.304;2023-03-01T08:45:25;17.38;;;9.73;;
40162;SDS011;25881;47.462;19.304;2023-03-01T08:47:52;14.40;;;8.90;;
40162;SDS011;25881;47.462;19.304;2023-03-01T08:50:17;15.25;;;9.70;;
40162;SDS011;25881;47.462;19.304;2023-03-01T08:52:42;13.45;;;9.48;;
40162;SDS011;25881;47.462;19.304;2023-03-01T08:55:07;15.17;;;10.23;;
40162;SDS011;25881;47.462;19.304;2023-03-01T08:57:33;16.45;;;11.15;;
40162;SDS011;25881;47.462;19.304;2023-03-01T08:59:58;17.33;;;10.27;;
40162;SDS011;25881;47.462;19.304;2023-03-01T09:02:23;14.20;;;9.23;;
40162;SDS011;25881;47.462;19.304;2023-03-01T09:04:49;15.27;;;9.47;;
40162;SDS011;25881;47.462;19.304;2023-03-01T09:07:14;14.93;;;9.17;;
40162;SDS011;25881;47.462;19.304;2023-03-01T09:09:39;15.87;;;9.70;;
40162;SDS011;25881;47.462;19.304;2023-03-01T09:12:04;16.42;;;9.65;;
40162;SDS011;25881;47.462;19.304;2023-03-01T09:14:30;16.23;;;9.93;;
40162;SDS011;25881;47.462;19.304;2023-03-01T09:16:55;14.90;;;9.35;;
40162;SDS011;25881;47.462;19.304;2023-03-01T09:19:21;17.45;;;9.73;;
40162;SDS011;25881;47.462;19.304;2023-03-01T09:21:46;15.43;;;10.13;;
40162;SDS011;25881;47.462;19.304;2023-03-01T09:24:18;89.53;;;18.10;;
40162;SDS011;25881;47.462;19.304;2023-03-01T09:26:43;16.05;;;9.23;;
40162;SDS011;25881;47.462;19.304;2023-03-01T09:29:11;21.92;;;10.55;;
40162;SDS011;25881;47.462;19.304;2023-03-01T09:31:36;19.75;;;10.40;;
40162;SDS011;25881;47.462;19.304;2023-03-01T09:34:02;40.47;;;13.10;;
40162;SDS011;25881;47.462;19.304;2023-03-01T09:36:27;21.10;;;9.53;;
40162;SDS011;25881;47.462;19.304;2023-03-01T09:38:52;17.92;;;9.02;;
40162;SDS011;25881;47.462;19.304;2023-03-01T09:44:04;16.42;;;10.73;;
40162;SDS011;25881;47.462;19.304;2023-03-01T09:46:31;17.07;;;11.00;;
40162;SDS011;25881;47.462;19.304;2023-03-01T09:49:05;17.35;;;10.18;;
40162;SDS011;25881;47.462;19.304;2023-03-01T09:51:34;18.00;;;10.02;;
40162;SDS011;25881;47.462;19.304;2023-03-01T09:54:03;18.95;;;11.25;;
40162;SDS011;25881;47.462;19.304;2023-03-01T09:56:44;16.13;;;9.93;;
40162;SDS011;25881;47.462;19.304;2023-03-01T10:04:23;14.88;;;8.98;;
40162;SDS011;25881;47.462;19.304;2023-03-01T10:09:42;13.32;;;9.13;;
40162;SDS011;25881;47.462;19.304;2023-03-01T10:12:12;14.10;;;8.95;;
40162;SDS011;25881;47.462;19.304;2023-03-01T10:14:56;57.08;;;13.77;;
40162;SDS011;25881;47.462;19.304;2023-03-01T10:17:36;14.57;;;9.68;;
40162;SDS011;25881;47.462;19.304;2023-03-01T10:20:15;15.38;;;9.95;;
40162;SDS011;25881;47.462;19.304;2023-03-01T10:22:41;17.52;;;10.15;;
40162;SDS011;25881;47.462;19.304;2023-03-01T10:25:08;35.27;;;12.07;;
40162;SDS011;25881;47.462;19.304;2023-03-01T10:27:49;22.00;;;10.63;;
40162;SDS011;25881;47.462;19.304;2023-03-01T10:30:17;17.23;;;9.73;;
40162;SDS011;25881;47.462;19.304;2023-03-01T10:32:45;14.98;;;9.30;;
40162;SDS011;25881;47.462;19.304;2023-03-01T10:35:19;13.90;;;9.45;;
40162;SDS011;25881;47.462;19.304;2023-03-01T10:37:58;15.55;;;8.50;;
40162;SDS011;25881;47.462;19.304;2023-03-01T10:40:23;15.02;;;9.00;;
40162;SDS011;25881;47.462;19.304;2023-03-01T10:42:49;12.88;;;8.52;;
40162;SDS011;25881;47.462;19.304;2023-03-01T10:45:16;12.90;;;8.60;;
40162;SDS011;25881;47.462;19.304;2023-03-01T10:47:42;13.85;;;8.57;;
40162;SDS011;25881;47.462;19.304;2023-03-01T10:50:25;15.33;;;9.13;;
40162;SDS011;25881;47.462;19.304;2023-03-01T10:52:58;13.80;;;8.95;;
40162;SDS011;25881;47.462;19.304;2023-03-01T10:57:49;13.00;;;8.27;;
40162;SDS011;25881;47.462;19.304;2023-03-01T11:00:17;12.45;;;7.13;;
40162;SDS011;25881;47.462;19.304;2023-03-01T11:02:46;15.45;;;9.13;;
40162;SDS011;25881;47.462;19.304;2023-03-01T11:10:33;13.93;;;8.50;;
40162;SDS011;25881;47.462;19.304;2023-03-01T11:13:06;12.63;;;8.30;;
40162;SDS011;25881;47.462;19.304;2023-03-01T11:15:32;12.10;;;7.35;;
40162;SDS011;25881;47.462;19.304;2023-03-01T11:17:57;14.83;;;8.33;;
40162;SDS011;25881;47.462;19.304;2023-03-01T11:20:33;11.60;;;7.68;;
40162;SDS011;25881;47.462;19.304;2023-03-01T11:23:01;12.50;;;7.13;;
40162;SDS011;25881;47.462;19.304;2023-03-01T11:25:29;12.75;;;6.68;;
40162;SDS011;25881;47.462;19.304;2023-03-01T11:27:56;17.27;;;7.30;;
40162;SDS011;25881;47.462;19.304;2023-03-01T11:35:41;19.17;;;8.07;;
40162;SDS011;25881;47.462;19.304;2023-03-01T11:40:46;15.45;;;7.85;;
40162;SDS011;25881;47.462;19.304;2023-03-01T11:43:22;11.00;;;7.20;;
40162;SDS011;25881;47.462;19.304;2023-03-01T11:48:50;18.30;;;6.97;;
40162;SDS011;25881;47.462;19.304;2023-03-01T11:51:21;13.38;;;6.63;;
40162;SDS011;25881;47.462;19.304;2023-03-01T12:09:21;11.50;;;6.32;;
40162;SDS011;25881;47.462;19.304;2023-03-01T12:12:06;10.50;;;6.18;;
40162;SDS011;25881;47.462;19.304;2023-03-01T12:30:15;10.23;;;6.15;;
40162;SDS011;25881;47.462;19.304;2023-03-01T12:32:45;10.88;;;5.82;;
40162;SDS011;25881;47.462;19.304;2023-03-01T12:35:16;9.10;;;5.93;;
40162;SDS011;25881;47.462;19.304;2023-03-01T12:50:12;7.73;;;5.03;;
40162;SDS011;25881;47.462;19.304;2023-03-01T12:52:42;9.55;;;5.13;;
40162;SDS011;25881;47.462;19.304;2023-03-01T12:55:24;10.27;;;4.85;;
40162;SDS011;25881;47.462;19.304;2023-03-01T12:58:00;8.23;;;4.90;;
40162;SDS011;25881;47.462;19.304;2023-03-01T13:00:37;7.30;;;4.32;;
40162;SDS011;25881;47.462;19.304;2023-03-01T13:08:35;11.75;;;7.55;;
40162;SDS011;25881;47.462;19.304;2023-03-01T13:11:02;11.85;;;6.53;;
40162;SDS011;25881;47.462;19.304;2023-03-01T13:13:28;13.32;;;5.15;;
40162;SDS011;25881;47.462;19.304;2023-03-01T13:15:54;11.02;;;5.55;;
40162;SDS011;25881;47.462;19.304;2023-03-01T13:20:47;45.85;;;8.98;;
40162;SDS011;25881;47.462;19.304;2023-03-01T13:30:56;17.00;;;5.32;;
40162;SDS011;25881;47.462;19.304;2023-03-01T13:35:53;6.43;;;4.25;;
40162;SDS011;25881;47.462;19.304;2023-03-01T13:41:11;7.20;;;3.90;;
40162;SDS011;25881;47.462;19.304;2023-03-01T13:43:38;11.48;;;4.93;;
40162;SDS011;25881;47.462;19.304;2023-03-01T13:48:38;6.05;;;3.28;;
40162;SDS011;25881;47.462;19.304;2023-03-01T13:51:05;5.55;;;3.53;;
40162;SDS011;25881;47.462;19.304;2023-03-01T13:54:09;6.27;;;3.60;;
40162;SDS011;25881;47.462;19.304;2023-03-01T13:56:24;6.70;;;4.40;;
40162;SDS011;25881;47.462;19.304;2023-03-01T14:01:40;6.15;;;3.70;;
40162;SDS011;25881;47.462;19.304;2023-03-01T14:04:19;6.50;;;3.38;;
40162;SDS011;25881;47.462;19.304;2023-03-01T14:06:44;98.20;;;15.20;;
40162;SDS011;25881;47.462;19.304;2023-03-01T14:16:59;9.38;;;3.90;;
40162;SDS011;25881;47.462;19.304;2023-03-01T14:19:29;10.02;;;4.53;;
40162;SDS011;25881;47.462;19.304;2023-03-01T14:24:29;7.63;;;3.38;;
40162;SDS011;25881;47.462;19.304;2023-03-01T14:26:57;108.68;;;15.82;;
40162;SDS011;25881;47.462;19.304;2023-03-01T14:29:23;11.90;;;3.60;;
40162;SDS011;25881;47.462;19.304;2023-03-01T14:31:50;151.18;;;20.20;;
40162;SDS011;25881;47.462;19.304;2023-03-01T14:34:22;8.32;;;3.35;;
40162;SDS011;25881;47.462;19.304;2023-03-01T14:36:48;14.25;;;4.95;;
40162;SDS011;25881;47.462;19.304;2023-03-01T14:39:17;10.35;;;3.00;;
40162;SDS011;25881;47.462;19.304;2023-03-01T14:41:42;5.22;;;3.25;;
40162;SDS011;25881;47.462;19.304;2023-03-01T14:44:11;5.32;;;3.15;;
40162;SDS011;25881;47.462;19.304;2023-03-01T14:51:28;15.07;;;5.20;;
40162;SDS011;25881;47.462;19.304;2023-03-01T14:53:53;5.22;;;3.20;;
40162;SDS011;25881;47.462;19.304;2023-03-01T14:56:18;9.30;;;3.92;;
40162;SDS011;25881;47.462;19.304;2023-03-01T14:58:44;6.82;;;3.47;;
40162;SDS011;25881;47.462;19.304;2023-03-01T15:01:10;29.27;;;7.75;;
40162;SDS011;25881;47.462;19.304;2023-03-01T15:03:44;12.40;;;5.15;;
40162;SDS011;25881;47.462;19.304;2023-03-01T15:06:11;23.30;;;7.25;;
40162;SDS011;25881;47.462;19.304;2023-03-01T15:08:41;10.95;;;4.10;;
40162;SDS011;25881;47.462;19.304;2023-03-01T15:11:20;21.00;;;6.55;;
40162;SDS011;25881;47.462;19.304;2023-03-01T15:13:48;84.25;;;11.13;;
40162;SDS011;25881;47.462;19.304;2023-03-01T15:16:17;41.20;;;8.90;;
40162;SDS011;25881;47.462;19.304;2023-03-01T15:18:48;18.85;;;5.78;;
40162;SDS011;25881;47.462;19.304;2023-03-01T15:21:17;94.78;;;13.45;;
40162;SDS011;25881;47.462;19.304;2023-03-01T15:23:47;20.80;;;6.07;;
40162;SDS011;25881;47.462;19.304;2023-03-01T15:26:23;11.40;;;4.72;;
40162;SDS011;25881;47.462;19.304;2023-03-01T15:28:49;11.38;;;6.18;;
40162;SDS011;25881;47.462;19.304;2023-03-01T15:31:22;18.40;;;7.43;;
40162;SDS011;25881;47.462;19.304;2023-03-01T15:33:48;16.00;;;6.03;;
40162;SDS011;25881;47.462;19.304;2023-03-01T15:36:30;8.85;;;4.22;;
40162;SDS011;25881;47.462;19.304;2023-03-01T15:38:56;24.83;;;9.00;;
40162;SDS011;25881;47.462;19.304;2023-03-01T15:41:27;14.13;;;9.38;;
40162;SDS011;25881;47.462;19.304;2023-03-01T15:43:52;12.95;;;6.60;;
40162;SDS011;25881;47.462;19.304;2023-03-01T15:46:25;23.75;;;7.30;;
40162;SDS011;25881;47.462;19.304;2023-03-01T15:48:52;17.83;;;8.00;;
40162;SDS011;25881;47.462;19.304;2023-03-01T15:51:21;20.80;;;8.80;;
40162;SDS011;25881;47.462;19.304;2023-03-01T15:53:51;22.20;;;9.15;;
40162;SDS011;25881;47.462;19.304;2023-03-01T15:56:17;21.15;;;12.80;;
40162;SDS011;25881;47.462;19.304;2023-03-01T15:58:43;17.47;;;9.50;;
40162;SDS011;25881;47.462;19.304;2023-03-01T16:01:10;10.95;;;5.22;;
40162;SDS011;25881;47.462;19.304;2023-03-01T16:03:37;13.98;;;6.78;;
40162;SDS011;25881;47.462;19.304;2023-03-01T16:06:03;12.18;;;7.68;;
40162;SDS011;25881;47.462;19.304;2023-03-01T16:08:28;21.08;;;11.85;;
40162;SDS011;25881;47.462;19.304;2023-03-01T16:10:54;21.35;;;8.85;;
40162;SDS011;25881;47.462;19.304;2023-03-01T16:13:19;30.45;;;8.23;;
40162;SDS011;25881;47.462;19.304;2023-03-01T16:15:44;29.10;;;6.38;;